Raritan, Illinois
Current Conditions -  °F | °C
As of 6:35 AM on Wednesday 26 Nov 2014 (Local Time) from KMQB Reporting Station
Broken Clouds Broken Clouds  
Wind Chill: 17°   Ceiling: 11000
Heat Index: 26°   Visibility: 7mi
Dew Point: 25°   Wind: 8mph
Humidity: 96%   Direction: 130°SE
Pressure: 30.08"   Gusts: NA
Location:  40.7°N, 90.83°W
Report Text: KMQB 261235Z AUTO 13007KT 7SM BKN110 M03/M04 A3008 RMK AO2 T10351040
Loading
Personal Weather Stations






























Interactive Weather Map New forecast layout! Learn more

10-Day Weather Forecast

Advertisements
Track Severe Weather on mobile